METAR Data
IDs: Format: Raw Decoded Include TAF

Data at: 1917 UTC 21 Sep 2021

PTTP 211852Z 00000KT 12SM -SHRA BKN017TCU OVC120 24/23 A2986 RMK TCU ALQDS SLP112 T02390233